createdAt,value
2023-05-05T00:01:09.156Z,100547.91
2023-05-05T00:03:35.782Z,100541.03
2023-05-05T00:06:02.760Z,100535.34
2023-05-05T00:08:30.037Z,100534.91
2023-05-05T00:10:57.602Z,100528.50
2023-05-05T00:13:24.663Z,100533.78
2023-05-05T00:15:53.308Z,100533.06
2023-05-05T00:18:21.202Z,100540.22
2023-05-05T00:20:48.692Z,100534.63
2023-05-05T00:23:16.138Z,100547.13
2023-05-05T00:25:42.857Z,100549.06
2023-05-05T00:28:09.606Z,100548.22
2023-05-05T00:30:36.396Z,100538.56
2023-05-05T00:33:03.158Z,100526.94
2023-05-05T00:35:29.808Z,100530.16
2023-05-05T00:37:56.484Z,100545.00
2023-05-05T00:40:23.458Z,100549.00
2023-05-05T00:42:53.256Z,100538.94
2023-05-05T00:45:20.329Z,100546.56
2023-05-05T00:47:53.552Z,100547.41
2023-05-05T00:50:30.981Z,100534.16
2023-05-05T00:53:03.340Z,100539.38
2023-05-05T00:55:30.913Z,100546.97
2023-05-05T00:57:58.845Z,100543.78
2023-05-05T01:00:26.428Z,100537.34
2023-05-05T01:02:53.794Z,100536.47
2023-05-05T01:05:23.429Z,100543.25
2023-05-05T01:08:21.607Z,100551.28
2023-05-05T01:11:20.901Z,100546.91
2023-05-05T01:13:58.629Z,100550.84
2023-05-05T01:16:27.305Z,100543.63
2023-05-05T01:19:00.034Z,100549.22
2023-05-05T01:21:32.616Z,100545.16
2023-05-05T01:24:05.135Z,100557.56
2023-05-05T01:26:45.575Z,100559.97
2023-05-05T01:29:34.458Z,100570.72
2023-05-05T01:32:13.246Z,100564.69
2023-05-05T01:34:53.346Z,100567.03
2023-05-05T01:37:44.135Z,100564.81
2023-05-05T01:40:14.248Z,100566.41
2023-05-05T01:42:43.424Z,100559.84
2023-05-05T01:45:14.465Z,100559.75
2023-05-05T01:47:43.882Z,100558.03
2023-05-05T01:50:12.178Z,100561.22
2023-05-05T01:52:41.077Z,100571.53
2023-05-05T01:55:09.763Z,100573.94
2023-05-05T01:57:38.996Z,100577.97
2023-05-05T02:00:07.334Z,100576.88
2023-05-05T02:02:37.367Z,100567.69
2023-05-05T02:05:05.623Z,100575.13
2023-05-05T02:07:34.486Z,100577.34
2023-05-05T02:10:03.131Z,100576.84
2023-05-05T02:12:31.768Z,100580.84
2023-05-05T02:15:00.275Z,100586.50
2023-05-05T02:17:27.783Z,100577.72
2023-05-05T02:19:55.812Z,100583.41
2023-05-05T02:22:22.942Z,100581.88
2023-05-05T02:24:49.543Z,100588.09
2023-05-05T02:27:18.929Z,100579.31
2023-05-05T02:29:52.709Z,100581.06
2023-05-05T02:32:28.675Z,100586.16
2023-05-05T02:34:58.494Z,100593.44
2023-05-05T02:37:29.700Z,100583.25
2023-05-05T02:40:05.916Z,100588.38
2023-05-05T02:42:39.741Z,100589.47
2023-05-05T02:45:12.729Z,100595.25
2023-05-05T02:47:39.604Z,100598.28
2023-05-05T02:50:08.288Z,100591.72
2023-05-05T02:52:35.930Z,100598.50
2023-05-05T02:55:04.481Z,100598.06
2023-05-05T02:57:57.413Z,100606.31
2023-05-05T03:00:34.259Z,100612.38
2023-05-05T03:03:13.905Z,100605.63
2023-05-05T03:05:45.896Z,100602.94
2023-05-05T03:08:30.224Z,100607.31
2023-05-05T03:11:11.509Z,100615.28
2023-05-05T03:13:42.794Z,100616.38
2023-05-05T03:16:11.713Z,100611.84
2023-05-05T03:18:39.824Z,100604.81
2023-05-05T03:21:10.134Z,100604.59
2023-05-05T03:23:37.456Z,100613.47
2023-05-05T03:26:04.015Z,100610.28
2023-05-05T03:28:30.540Z,100612.72
2023-05-05T03:30:57.430Z,100613.19
2023-05-05T03:33:24.015Z,100611.56
2023-05-05T03:35:50.538Z,100613.41
2023-05-05T03:38:17.715Z,100613.66
2023-05-05T03:40:45.003Z,100612.47
2023-05-05T03:43:12.079Z,100620.66
2023-05-05T03:45:38.726Z,100617.28
2023-05-05T03:48:05.684Z,100613.13
2023-05-05T03:50:32.282Z,100618.25
2023-05-05T03:52:58.742Z,100616.72
2023-05-05T03:55:25.758Z,100620.38
2023-05-05T03:57:52.535Z,100616.09
2023-05-05T04:00:19.428Z,100621.31
2023-05-05T04:02:45.931Z,100622.13
2023-05-05T04:05:12.585Z,100624.31
2023-05-05T04:07:39.216Z,100631.41
2023-05-05T04:10:06.934Z,100635.34
2023-05-05T04:12:33.975Z,100635.53
2023-05-05T04:15:00.426Z,100635.19
2023-05-05T04:17:27.073Z,100638.72
2023-05-05T04:19:53.892Z,100636.66
2023-05-05T04:22:20.453Z,100645.09
2023-05-05T04:24:47.465Z,100644.72
2023-05-05T04:27:14.235Z,100644.13
2023-05-05T04:29:41.265Z,100647.69
2023-05-05T04:32:07.912Z,100642.75
2023-05-05T04:34:34.374Z,100644.38
2023-05-05T04:37:01.108Z,100646.00
2023-05-05T04:39:27.709Z,100644.47
2023-05-05T04:41:54.249Z,100649.75
2023-05-05T04:44:20.909Z,100641.47
2023-05-05T04:46:47.398Z,100649.59
2023-05-05T04:49:13.921Z,100658.72
2023-05-05T04:51:43.494Z,100656.56
2023-05-05T04:54:10.064Z,100661.72
2023-05-05T04:56:37.045Z,100657.28
2023-05-05T04:59:03.848Z,100651.69
2023-05-05T05:01:31.686Z,100661.47
2023-05-05T05:03:58.325Z,100662.38
2023-05-05T05:06:24.934Z,100669.69
2023-05-05T05:08:52.028Z,100667.16
2023-05-05T05:11:18.672Z,100660.84
2023-05-05T05:13:46.181Z,100663.66
2023-05-05T05:16:12.992Z,100669.31
2023-05-05T05:18:39.985Z,100670.56
2023-05-05T05:21:07.302Z,100675.38
2023-05-05T05:23:33.871Z,100675.44
2023-05-05T05:26:00.365Z,100684.75
2023-05-05T05:28:26.887Z,100681.19
2023-05-05T05:30:53.869Z,100677.16
2023-05-05T05:33:20.881Z,100684.75
2023-05-05T05:35:47.522Z,100683.94
2023-05-05T05:38:14.424Z,100682.38
2023-05-05T05:40:41.270Z,100686.03
2023-05-05T05:43:08.169Z,100684.16
2023-05-05T05:45:34.749Z,100688.16
2023-05-05T05:48:01.155Z,100691.03
2023-05-05T05:50:28.737Z,100688.69
2023-05-05T05:52:55.960Z,100682.63
2023-05-05T05:55:22.376Z,100690.28
2023-05-05T05:57:49.146Z,100682.72
2023-05-05T06:00:16.043Z,100686.75
2023-05-05T06:02:43.078Z,100685.13
2023-05-05T06:05:10.298Z,100687.91
2023-05-05T06:07:37.186Z,100686.75
2023-05-05T06:10:22.884Z,100689.19
2023-05-05T06:12:52.420Z,100689.97
2023-05-05T06:15:18.962Z,100695.63
2023-05-05T06:17:45.786Z,100700.44
2023-05-05T06:20:13.775Z,100700.00
2023-05-05T06:22:40.314Z,100702.47
2023-05-05T06:25:07.108Z,100700.47
2023-05-05T06:27:34.104Z,100696.84
2023-05-05T06:30:00.670Z,100714.50
2023-05-05T06:32:27.332Z,100710.47
2023-05-05T06:34:53.765Z,100704.06
2023-05-05T06:37:20.470Z,100711.19
2023-05-05T06:39:46.922Z,100713.66
2023-05-05T06:42:13.496Z,100715.66
2023-05-05T06:44:40.425Z,100712.00
2023-05-05T06:47:07.205Z,100707.91
2023-05-05T06:49:33.646Z,100699.72
2023-05-05T06:52:00.167Z,100695.84
2023-05-05T06:54:26.888Z,100699.72
2023-05-05T06:56:53.484Z,100702.34
2023-05-05T06:59:19.975Z,100712.00
2023-05-05T07:01:47.416Z,100702.66
2023-05-05T07:04:13.830Z,100709.91
2023-05-05T07:06:40.688Z,100711.09
2023-05-05T07:09:07.225Z,100720.19
2023-05-05T07:11:34.372Z,100711.66
2023-05-05T07:14:01.080Z,100709.47
2023-05-05T07:16:27.969Z,100714.41
2023-05-05T07:18:55.205Z,100711.75
2023-05-05T07:21:21.985Z,100717.88
2023-05-05T07:23:48.591Z,100717.53
2023-05-05T07:26:15.405Z,100725.03
2023-05-05T07:28:43.084Z,100729.34
2023-05-05T07:31:09.808Z,100726.91
2023-05-05T07:33:36.483Z,100722.63
2023-05-05T07:36:03.276Z,100719.53
2023-05-05T07:38:29.819Z,100721.38
2023-05-05T07:40:56.350Z,100722.75
2023-05-05T07:43:22.957Z,100722.34
2023-05-05T07:45:49.731Z,100720.69
2023-05-05T07:48:17.242Z,100718.59
2023-05-05T07:50:44.788Z,100721.56
2023-05-05T07:53:14.882Z,100718.31
2023-05-05T07:55:42.238Z,100720.50
2023-05-05T07:58:10.945Z,100719.44
2023-05-05T08:00:38.287Z,100724.59
2023-05-05T08:03:04.975Z,100719.28
2023-05-05T08:05:31.740Z,100725.75
2023-05-05T08:07:58.739Z,100727.50
2023-05-05T08:10:25.377Z,100716.41
2023-05-05T08:12:54.287Z,100719.81
2023-05-05T08:15:21.527Z,100714.00
2023-05-05T08:17:53.092Z,100713.72
2023-05-05T08:20:20.512Z,100712.22
2023-05-05T08:22:48.277Z,100709.69
2023-05-05T08:25:15.383Z,100706.16
2023-05-05T08:27:43.145Z,100713.97
2023-05-05T08:30:10.355Z,100699.66
2023-05-05T08:32:38.295Z,100713.03
2023-05-05T08:35:06.326Z,100710.75
2023-05-05T08:37:34.142Z,100701.00
2023-05-05T08:40:00.748Z,100706.94
2023-05-05T08:42:37.211Z,100708.84
2023-05-05T08:45:07.116Z,100708.66
2023-05-05T08:47:35.477Z,100703.09
2023-05-05T08:50:02.332Z,100695.81
2023-05-05T08:52:37.845Z,100695.34
2023-05-05T08:55:09.102Z,100691.81
2023-05-05T08:57:57.252Z,100687.00
2023-05-05T09:00:27.245Z,100688.66
2023-05-05T09:02:57.140Z,100693.78
2023-05-05T09:05:25.006Z,100689.69
2023-05-05T09:07:52.244Z,100682.88
2023-05-05T09:10:18.963Z,100678.28
2023-05-05T09:12:46.541Z,100681.75
2023-05-05T09:15:14.714Z,100677.97
2023-05-05T09:17:42.285Z,100678.00
2023-05-05T09:20:12.170Z,100683.38
2023-05-05T09:22:46.534Z,100671.38
2023-05-05T09:25:15.538Z,100676.72
2023-05-05T09:27:45.927Z,100676.94
2023-05-05T09:30:16.671Z,100677.03
2023-05-05T09:32:51.407Z,100678.13
2023-05-05T09:35:19.400Z,100676.47
2023-05-05T09:37:46.875Z,100678.69
2023-05-05T09:40:15.620Z,100679.03
2023-05-05T09:42:42.763Z,100674.22
2023-05-05T09:45:18.494Z,100667.28
2023-05-05T09:47:46.896Z,100668.13
2023-05-05T09:50:16.056Z,100672.53
2023-05-05T09:52:43.233Z,100678.88
2023-05-05T09:55:17.668Z,100680.31
2023-05-05T09:57:44.437Z,100680.53
2023-05-05T10:00:11.374Z,100679.03
2023-05-05T10:02:39.819Z,100663.69
2023-05-05T10:05:12.557Z,100652.22
2023-05-05T10:07:41.185Z,100656.38
2023-05-05T10:10:14.262Z,100648.63
2023-05-05T10:12:42.118Z,100653.28
2023-05-05T10:15:10.721Z,100651.88
2023-05-05T10:17:58.373Z,100645.69
2023-05-05T10:20:33.290Z,100653.91
2023-05-05T10:23:05.466Z,100654.84
2023-05-05T10:25:41.563Z,100654.81
2023-05-05T10:28:11.817Z,100652.81
2023-05-05T10:30:44.602Z,100658.78
2023-05-05T10:35:53.825Z,100661.16
2023-05-05T10:38:21.463Z,100666.66
2023-05-05T10:40:49.078Z,100671.31
2023-05-05T10:43:15.682Z,100670.78
2023-05-05T10:45:43.710Z,100668.75
2023-05-05T10:48:18.639Z,100666.63
2023-05-05T10:50:51.668Z,100646.94
2023-05-05T10:53:28.528Z,100654.19
2023-05-05T10:56:16.469Z,100653.81
2023-05-05T10:58:55.565Z,100649.78
2023-05-05T11:01:36.419Z,100649.94
2023-05-05T11:04:24.787Z,100648.22
2023-05-05T11:07:13.442Z,100650.56
2023-05-05T11:10:14.638Z,100653.34
2023-05-05T11:12:54.766Z,100652.66
2023-05-05T11:15:27.321Z,100656.81
2023-05-05T11:17:56.044Z,100656.78
2023-05-05T11:20:35.026Z,100647.44
2023-05-05T11:23:02.443Z,100634.50
2023-05-05T11:25:35.343Z,100628.44
2023-05-05T11:28:19.310Z,100631.34
2023-05-05T11:30:54.805Z,100635.56
2023-05-05T11:33:31.012Z,100630.72
2023-05-05T11:36:08.943Z,100635.13
2023-05-05T11:38:41.353Z,100637.50
2023-05-05T11:41:26.670Z,100635.78
2023-05-05T11:44:15.879Z,100638.50
2023-05-05T11:46:51.436Z,100626.81
2023-05-05T11:49:31.618Z,100621.69
2023-05-05T11:52:02.762Z,100621.63
2023-05-05T11:54:30.848Z,100618.13
2023-05-05T11:56:59.580Z,100626.63
2023-05-05T11:59:26.842Z,100623.91
2023-05-05T12:01:53.740Z,100638.41
2023-05-05T12:04:21.898Z,100668.03
2023-05-05T12:06:49.058Z,100678.50
2023-05-05T12:09:16.405Z,100681.97
2023-05-05T12:11:57.102Z,100693.94
2023-05-05T12:14:24.495Z,100693.19
2023-05-05T12:16:55.651Z,100693.50
2023-05-05T12:19:22.798Z,100692.28
2023-05-05T12:21:50.227Z,100693.25
2023-05-05T12:24:17.101Z,100687.19
2023-05-05T12:26:43.993Z,100682.69
2023-05-05T12:29:10.803Z,100680.75
2023-05-05T12:31:42.150Z,100687.84
2023-05-05T12:34:10.685Z,100682.28
2023-05-05T12:36:37.497Z,100691.84
2023-05-05T12:39:07.455Z,100688.66
2023-05-05T12:41:34.658Z,100679.72
2023-05-05T12:44:03.167Z,100676.69
2023-05-05T12:46:30.966Z,100682.47
2023-05-05T12:49:05.704Z,100689.38
2023-05-05T12:51:36.441Z,100687.19
2023-05-05T12:54:11.311Z,100695.59
2023-05-05T12:56:48.118Z,100694.13
2023-05-05T12:59:21.090Z,100695.28
2023-05-05T13:01:53.224Z,100688.06
2023-05-05T13:04:21.651Z,100686.22
2023-05-05T13:06:49.655Z,100671.53
2023-05-05T13:09:34.350Z,100651.50
2023-05-05T13:12:04.595Z,100662.66
2023-05-05T13:14:31.809Z,100665.06
2023-05-05T13:16:58.835Z,100658.03
2023-05-05T13:19:26.278Z,100665.19
2023-05-05T13:21:53.578Z,100661.69
2023-05-05T13:24:31.185Z,100662.66
2023-05-05T13:27:05.475Z,100658.41
2023-05-05T13:29:33.163Z,100648.88
2023-05-05T13:32:00.145Z,100646.78
2023-05-05T13:34:27.051Z,100653.66
2023-05-05T13:36:53.678Z,100645.34
2023-05-05T13:39:20.288Z,100650.47
2023-05-05T13:41:46.735Z,100646.09
2023-05-05T13:44:14.029Z,100631.91
2023-05-05T13:46:42.514Z,100630.06
2023-05-05T13:49:09.304Z,100636.13
2023-05-05T13:51:36.863Z,100629.31
2023-05-05T13:54:04.109Z,100632.38
2023-05-05T13:56:31.068Z,100632.44
2023-05-05T13:58:57.828Z,100637.00
2023-05-05T14:01:24.616Z,100642.06
2023-05-05T14:03:51.560Z,100644.91
2023-05-05T14:06:18.283Z,100637.25
2023-05-05T14:08:46.249Z,100636.91
2023-05-05T14:11:13.696Z,100640.22
2023-05-05T14:13:40.546Z,100628.13
2023-05-05T14:16:06.909Z,100629.81
2023-05-05T14:18:34.099Z,100622.25
2023-05-05T14:21:00.612Z,100618.59
2023-05-05T14:23:27.396Z,100616.84
2023-05-05T14:25:54.538Z,100610.00
2023-05-05T14:28:21.022Z,100615.38
2023-05-05T14:30:47.579Z,100606.66
2023-05-05T14:33:14.027Z,100605.69
2023-05-05T14:35:40.896Z,100600.50
2023-05-05T14:38:26.691Z,100611.38
2023-05-05T14:40:53.396Z,100603.84
2023-05-05T14:43:21.831Z,100606.72
2023-05-05T14:45:48.772Z,100613.91
2023-05-05T14:48:15.782Z,100608.75
2023-05-05T14:50:42.753Z,100596.91
2023-05-05T14:53:09.607Z,100596.66
2023-05-05T14:55:37.056Z,100606.78
2023-05-05T14:58:03.658Z,100602.81
2023-05-05T15:00:30.131Z,100605.47
2023-05-05T15:02:56.798Z,100606.53
2023-05-05T15:05:23.271Z,100616.28
2023-05-05T15:07:49.861Z,100620.22
2023-05-05T15:10:16.524Z,100616.06
2023-05-05T15:12:43.500Z,100614.53
2023-05-05T15:15:10.592Z,100608.84
2023-05-05T15:17:38.649Z,100624.00
2023-05-05T15:20:06.678Z,100611.66
2023-05-05T15:22:33.379Z,100616.22
2023-05-05T15:25:00.244Z,100620.72
2023-05-05T15:27:27.026Z,100618.41
2023-05-05T15:29:54.412Z,100612.88
2023-05-05T15:32:21.202Z,100607.91
2023-05-05T15:34:50.223Z,100606.72
2023-05-05T15:37:17.099Z,100607.34
2023-05-05T15:39:43.699Z,100604.09
2023-05-05T15:42:10.204Z,100609.59
2023-05-05T15:44:38.182Z,100603.03
2023-05-05T15:47:06.308Z,100595.28
2023-05-05T15:49:32.810Z,100598.13
2023-05-05T15:51:59.652Z,100598.03
2023-05-05T15:54:26.374Z,100604.47
2023-05-05T15:56:52.980Z,100599.81
2023-05-05T15:59:19.531Z,100601.09
2023-05-05T16:01:46.659Z,100604.19
2023-05-05T16:04:13.867Z,100608.50
2023-05-05T16:06:40.874Z,100611.66
2023-05-05T16:09:07.506Z,100608.47
2023-05-05T16:11:34.183Z,100617.47
2023-05-05T16:14:00.970Z,100611.09
2023-05-05T16:16:27.602Z,100619.81
2023-05-05T16:18:54.734Z,100617.84
2023-05-05T16:21:21.169Z,100613.72
2023-05-05T16:23:47.703Z,100618.56
2023-05-05T16:26:14.196Z,100625.63
2023-05-05T16:28:40.785Z,100626.75
2023-05-05T16:31:09.425Z,100625.66
2023-05-05T16:33:40.675Z,100636.75
2023-05-05T16:36:09.969Z,100632.81
2023-05-05T16:38:37.326Z,100632.09
2023-05-05T16:41:04.104Z,100633.56
2023-05-05T16:43:30.854Z,100630.31
2023-05-05T16:45:57.568Z,100635.53
2023-05-05T16:48:24.544Z,100628.97
2023-05-05T16:50:51.180Z,100629.13
2023-05-05T16:53:18.046Z,100623.09
2023-05-05T16:55:44.565Z,100612.16
2023-05-05T16:58:12.385Z,100622.22
2023-05-05T17:00:39.403Z,100625.94
2023-05-05T17:03:06.233Z,100617.75
2023-05-05T17:05:32.790Z,100614.53
2023-05-05T17:07:59.303Z,100619.44
2023-05-05T17:10:25.774Z,100632.34
2023-05-05T17:12:52.714Z,100615.03
2023-05-05T17:15:19.093Z,100628.44
2023-05-05T17:17:45.810Z,100626.16
2023-05-05T17:20:12.991Z,100631.38
2023-05-05T17:22:40.275Z,100630.38
2023-05-05T17:25:07.362Z,100642.16
2023-05-05T17:27:34.048Z,100638.56
2023-05-05T17:32:27.187Z,100642.34
2023-05-05T17:34:54.301Z,100640.38
2023-05-05T17:37:20.973Z,100646.34
2023-05-05T17:39:47.539Z,100638.72
2023-05-05T17:42:14.218Z,100650.00
2023-05-05T17:44:40.895Z,100633.03
2023-05-05T17:47:07.768Z,100644.06
2023-05-05T17:49:34.715Z,100643.03
2023-05-05T17:52:01.378Z,100642.56
2023-05-05T17:54:29.922Z,100635.94
2023-05-05T17:56:57.362Z,100642.16
2023-05-05T17:59:23.872Z,100639.31
2023-05-05T18:01:50.528Z,100646.25
2023-05-05T18:04:17.439Z,100648.72
2023-05-05T18:06:44.171Z,100652.75
2023-05-05T18:09:11.982Z,100656.81
2023-05-05T18:11:38.494Z,100646.06
2023-05-05T18:14:05.381Z,100658.09
2023-05-05T18:16:31.879Z,100649.25
2023-05-05T18:18:58.896Z,100658.13
2023-05-05T18:21:25.781Z,100664.97
2023-05-05T18:23:57.297Z,100660.53
2023-05-05T18:26:28.634Z,100673.00
2023-05-05T18:28:55.070Z,100673.00
2023-05-05T18:31:22.165Z,100669.00
2023-05-05T18:33:48.896Z,100675.84
2023-05-05T18:36:15.705Z,100671.88
2023-05-05T18:38:42.182Z,100679.50
2023-05-05T18:41:08.850Z,100681.94
2023-05-05T18:43:36.229Z,100681.16
2023-05-05T18:46:02.888Z,100674.72
2023-05-05T18:48:30.530Z,100681.56
2023-05-05T18:51:04.126Z,100687.59
2023-05-05T18:53:31.805Z,100689.22
2023-05-05T18:55:59.027Z,100689.59
2023-05-05T18:58:26.596Z,100686.41
2023-05-05T19:00:53.383Z,100679.59
2023-05-05T19:03:20.204Z,100683.22
2023-05-05T19:05:46.982Z,100696.84
2023-05-05T19:08:13.926Z,100695.22
2023-05-05T19:10:40.803Z,100704.88
2023-05-05T19:13:09.812Z,100710.03
2023-05-05T19:15:36.722Z,100719.25
2023-05-05T19:18:05.525Z,100722.84
2023-05-05T19:20:32.480Z,100727.66
2023-05-05T19:23:03.578Z,100729.25
2023-05-05T19:25:31.356Z,100734.50
2023-05-05T19:27:58.258Z,100740.09
2023-05-05T19:30:26.383Z,100737.28
2023-05-05T19:32:53.476Z,100742.44
2023-05-05T19:35:20.044Z,100743.66
2023-05-05T19:37:47.030Z,100751.31
2023-05-05T19:40:14.062Z,100743.28
2023-05-05T19:42:41.202Z,100744.03
2023-05-05T19:45:08.156Z,100740.03
2023-05-05T19:47:35.717Z,100746.84
2023-05-05T19:50:02.512Z,100740.00
2023-05-05T19:52:29.127Z,100748.44
2023-05-05T19:54:55.989Z,100745.63
2023-05-05T19:57:22.699Z,100746.38
2023-05-05T19:59:49.548Z,100754.41
2023-05-05T20:02:21.841Z,100754.81
2023-05-05T20:04:49.504Z,100756.34
2023-05-05T20:07:17.771Z,100751.88
2023-05-05T20:09:45.099Z,100747.16
2023-05-05T20:12:12.172Z,100746.75
2023-05-05T20:14:39.558Z,100747.09
2023-05-05T20:17:06.029Z,100750.31
2023-05-05T20:19:32.848Z,100750.38
2023-05-05T20:21:59.489Z,100754.38
2023-05-05T20:24:28.882Z,100745.03
2023-05-05T20:26:55.587Z,100751.81
2023-05-05T20:29:22.571Z,100753.19
2023-05-05T20:31:49.190Z,100753.91
2023-05-05T20:34:16.261Z,100760.22
2023-05-05T20:36:43.132Z,100756.13
2023-05-05T20:39:15.243Z,100756.06
2023-05-05T20:41:42.017Z,100758.78
2023-05-05T20:44:11.449Z,100756.88
2023-05-05T20:46:38.046Z,100762.03
2023-05-05T20:49:04.613Z,100762.25
2023-05-05T20:51:34.166Z,100760.97
2023-05-05T20:54:02.109Z,100759.47
2023-05-05T20:56:28.760Z,100765.34
2023-05-05T20:58:56.655Z,100760.84
2023-05-05T21:01:24.477Z,100761.19
2023-05-05T21:03:51.391Z,100757.56
2023-05-05T21:06:19.512Z,100765.53
2023-05-05T21:08:47.126Z,100762.28
2023-05-05T21:11:13.643Z,100758.41
2023-05-05T21:13:40.252Z,100753.13
2023-05-05T21:16:06.814Z,100759.91
2023-05-05T21:18:33.390Z,100755.59
2023-05-05T21:21:01.196Z,100756.16
2023-05-05T21:23:28.281Z,100757.41
2023-05-05T21:25:55.369Z,100765.06
2023-05-05T21:28:21.939Z,100755.38
2023-05-05T21:31:10.364Z,100753.16
2023-05-05T21:33:37.449Z,100756.78
2023-05-05T21:36:04.519Z,100757.84
2023-05-05T21:38:31.104Z,100761.56
2023-05-05T21:40:58.431Z,100751.13
2023-05-05T21:43:26.647Z,100767.03
2023-05-05T21:46:03.368Z,100766.88
2023-05-05T21:48:31.277Z,100772.22
2023-05-05T21:50:57.976Z,100774.66
2023-05-05T21:53:24.812Z,100767.31
2023-05-05T21:55:51.906Z,100769.78
2023-05-05T21:58:18.305Z,100766.66
2023-05-05T22:00:44.972Z,100769.91
2023-05-05T22:03:11.521Z,100769.88
2023-05-05T22:05:38.493Z,100769.78
2023-05-05T22:08:05.272Z,100774.25
2023-05-05T22:10:32.125Z,100768.16
2023-05-05T22:12:58.802Z,100755.41
2023-05-05T22:15:29.850Z,100756.50
2023-05-05T22:17:59.448Z,100764.97
2023-05-05T22:20:26.191Z,100760.13
2023-05-05T22:22:52.966Z,100760.94
2023-05-05T22:25:19.673Z,100757.75
2023-05-05T22:27:46.849Z,100764.91
2023-05-05T22:30:14.008Z,100767.00
2023-05-05T22:32:43.283Z,100764.53
2023-05-05T22:35:09.947Z,100770.59
2023-05-05T22:37:37.137Z,100775.38
2023-05-05T22:40:04.668Z,100782.50
2023-05-05T22:42:31.161Z,100775.22
2023-05-05T22:44:57.796Z,100787.72
2023-05-05T22:47:24.397Z,100794.56
2023-05-05T22:49:50.926Z,100785.81
2023-05-05T22:52:17.932Z,100788.16
2023-05-05T22:54:44.573Z,100785.34
2023-05-05T22:57:11.555Z,100779.28
2023-05-05T22:59:38.154Z,100781.66
2023-05-05T23:02:05.108Z,100774.88
2023-05-05T23:04:31.786Z,100782.94
2023-05-05T23:06:58.768Z,100769.28
2023-05-05T23:09:25.657Z,100760.38
2023-05-05T23:11:52.373Z,100755.19
2023-05-05T23:14:19.479Z,100754.94
2023-05-05T23:16:46.428Z,100743.81
2023-05-05T23:19:13.709Z,100742.59
2023-05-05T23:21:51.933Z,100750.53
2023-05-05T23:24:19.686Z,100760.22
2023-05-05T23:26:46.084Z,100760.47
2023-05-05T23:29:12.767Z,100757.31
2023-05-05T23:31:39.445Z,100755.31
2023-05-05T23:34:06.246Z,100760.22
2023-05-05T23:36:32.782Z,100760.13
2023-05-05T23:38:59.364Z,100761.81
2023-05-05T23:41:25.961Z,100765.03
2023-05-05T23:43:53.381Z,100765.25
2023-05-05T23:46:19.927Z,100762.22
2023-05-05T23:48:46.565Z,100757.31
2023-05-05T23:51:13.220Z,100758.47
2023-05-05T23:53:40.056Z,100753.66
2023-05-05T23:56:07.486Z,100751.66
2023-05-05T23:58:34.463Z,100752.84
